createdAt,value
2022-11-10T00:03:44.240Z,1.40
2022-11-10T00:10:04.992Z,1.27
2022-11-10T00:16:45.832Z,1.10
2022-11-10T00:23:05.841Z,1.20
2022-11-10T00:29:25.927Z,1.42
2022-11-10T00:35:46.256Z,1.27
2022-11-10T00:42:07.525Z,1.58
2022-11-10T00:48:27.509Z,1.33
2022-11-10T00:54:47.797Z,1.20
2022-11-10T01:01:08.551Z,1.40
2022-11-10T01:07:28.628Z,1.30
2022-11-10T01:13:50.124Z,1.70
2022-11-10T01:20:10.291Z,1.30
2022-11-10T01:26:30.315Z,1.47
2022-11-10T01:32:50.472Z,1.30
2022-11-10T01:39:10.319Z,1.40
2022-11-10T01:45:44.054Z,0.98
2022-11-10T01:52:09.669Z,1.20
2022-11-10T01:58:32.218Z,1.40
2022-11-10T02:04:52.407Z,1.27
2022-11-10T02:11:12.470Z,1.43
2022-11-10T02:17:32.502Z,1.17
2022-11-10T02:23:53.372Z,1.33
2022-11-10T02:30:13.459Z,1.17
2022-11-10T02:36:33.420Z,1.30
2022-11-10T02:42:53.966Z,1.50
2022-11-10T02:49:14.054Z,1.10
2022-11-10T02:55:34.271Z,1.95
2022-11-10T03:01:54.479Z,1.40
2022-11-10T03:08:14.660Z,1.20
2022-11-10T03:14:35.089Z,1.50
2022-11-10T03:20:55.329Z,1.38
2022-11-10T03:27:15.458Z,1.45
2022-11-10T03:33:35.682Z,1.50
2022-11-10T03:39:56.056Z,1.45
2022-11-10T03:46:16.609Z,1.10
2022-11-10T03:52:38.646Z,1.40
2022-11-10T03:58:58.782Z,1.50
2022-11-10T04:05:37.832Z,1.40
2022-11-10T04:12:20.697Z,1.60
2022-11-10T04:18:43.800Z,1.70
2022-11-10T04:25:04.026Z,1.25
2022-11-10T04:31:25.183Z,1.52
2022-11-10T04:37:46.199Z,1.20
2022-11-10T04:44:06.126Z,1.70
2022-11-10T04:50:26.456Z,1.50
2022-11-10T04:56:46.657Z,1.30
2022-11-10T05:03:08.496Z,1.10
2022-11-10T05:09:28.684Z,1.40
2022-11-10T05:15:48.748Z,1.25
2022-11-10T05:22:09.071Z,1.40
2022-11-10T05:28:29.453Z,1.60
2022-11-10T05:34:49.564Z,1.27
2022-11-10T05:41:09.708Z,1.53
2022-11-10T05:47:29.996Z,1.63
2022-11-10T05:53:49.873Z,2.13
2022-11-10T06:00:10.529Z,1.40
2022-11-10T06:06:30.695Z,1.40
2022-11-10T06:12:51.024Z,1.40
2022-11-10T06:19:11.647Z,1.67
2022-11-10T06:25:32.492Z,1.50
2022-11-10T06:31:53.052Z,1.50
2022-11-10T06:38:13.140Z,1.90
2022-11-10T06:44:33.150Z,1.30
2022-11-10T06:50:53.361Z,1.50
2022-11-10T06:57:13.728Z,1.47
2022-11-10T07:03:33.889Z,1.80
2022-11-10T07:09:53.882Z,1.67
2022-11-10T07:16:14.288Z,1.50
2022-11-10T07:22:34.455Z,1.52
2022-11-10T07:28:54.407Z,1.60
2022-11-10T07:35:14.463Z,1.50
2022-11-10T07:41:34.568Z,1.48
2022-11-10T07:48:01.431Z,1.50
2022-11-10T07:54:21.583Z,1.77
2022-11-10T08:00:42.541Z,1.67
2022-11-10T08:07:02.855Z,1.75
2022-11-10T08:13:23.312Z,1.40
2022-11-10T08:19:43.643Z,1.93
2022-11-10T08:26:03.903Z,1.70
2022-11-10T08:32:24.326Z,1.60
2022-11-10T08:38:44.547Z,1.92
2022-11-10T08:45:04.657Z,1.50
2022-11-10T08:51:24.535Z,2.00
2022-11-10T08:57:44.741Z,1.55
2022-11-10T09:04:04.856Z,1.73
2022-11-10T09:10:25.137Z,1.67
2022-11-10T09:16:45.418Z,1.95
2022-11-10T09:23:12.656Z,1.60
2022-11-10T09:29:32.876Z,1.92
2022-11-10T09:35:56.470Z,1.70
2022-11-10T09:42:25.278Z,1.52
2022-11-10T09:48:51.344Z,1.52
2022-11-10T09:55:29.931Z,2.30
2022-11-10T10:01:58.750Z,1.67
2022-11-10T10:08:31.008Z,2.00
2022-11-10T10:14:56.457Z,1.63
2022-11-10T10:21:29.482Z,2.10
2022-11-10T10:27:54.467Z,1.80
2022-11-10T10:34:16.002Z,1.90
2022-11-10T10:40:36.133Z,2.10
2022-11-10T10:46:57.397Z,2.03
2022-11-10T10:53:24.121Z,2.10
2022-11-10T10:59:44.996Z,1.77
2022-11-10T11:06:07.605Z,2.42
2022-11-10T11:12:30.331Z,2.20
2022-11-10T11:18:50.801Z,1.77
2022-11-10T11:25:10.936Z,1.80
2022-11-10T11:31:31.042Z,2.10
2022-11-10T11:38:10.194Z,2.08
2022-11-10T11:44:49.065Z,2.00
2022-11-10T11:51:31.223Z,2.10
2022-11-10T11:58:05.464Z,1.90
2022-11-10T12:04:42.544Z,2.00
2022-11-10T12:11:02.654Z,1.80
2022-11-10T12:17:55.102Z,1.50
2022-11-10T12:24:24.037Z,1.77
2022-11-10T12:30:44.626Z,1.80
2022-11-10T12:37:06.700Z,1.90
2022-11-10T12:43:38.689Z,1.27
2022-11-10T12:50:17.507Z,1.70
2022-11-10T12:56:39.410Z,1.35
2022-11-10T13:02:59.571Z,1.80
2022-11-10T13:09:24.285Z,1.57
2022-11-10T13:15:45.564Z,2.05
2022-11-10T13:22:09.934Z,1.80
2022-11-10T13:28:48.188Z,1.60
2022-11-10T13:35:26.830Z,1.50
2022-11-10T13:41:47.603Z,1.93
2022-11-10T13:48:10.944Z,1.60
2022-11-10T13:54:36.729Z,1.60
2022-11-10T14:01:14.694Z,1.60
2022-11-10T14:07:43.273Z,1.65
2022-11-10T14:14:17.007Z,2.20
2022-11-10T14:20:44.002Z,1.90
2022-11-10T14:27:11.994Z,1.80
2022-11-10T14:33:32.431Z,1.90
2022-11-10T14:39:53.754Z,1.85
2022-11-10T14:46:14.945Z,1.70
2022-11-10T14:52:39.378Z,1.70
2022-11-10T14:59:01.490Z,1.40
2022-11-10T15:05:21.677Z,1.67
2022-11-10T15:11:50.753Z,1.80
2022-11-10T15:18:26.982Z,1.90
2022-11-10T15:24:48.254Z,1.70
2022-11-10T15:31:10.867Z,1.80
2022-11-10T15:37:31.550Z,1.98
2022-11-10T15:43:51.405Z,2.03
2022-11-10T15:50:12.118Z,2.13
2022-11-10T15:56:32.825Z,2.05
2022-11-10T16:02:53.069Z,1.67
2022-11-10T16:09:13.425Z,1.70
2022-11-10T16:15:33.633Z,1.58
2022-11-10T16:21:54.124Z,2.27
2022-11-10T16:28:17.741Z,2.20
2022-11-10T16:34:37.915Z,1.97
2022-11-10T16:41:01.855Z,1.75
2022-11-10T16:47:22.073Z,2.28
2022-11-10T16:53:42.371Z,2.00
2022-11-10T17:00:03.206Z,1.73
2022-11-10T17:06:24.425Z,2.03
2022-11-10T17:12:44.726Z,2.05
2022-11-10T17:19:07.385Z,2.10
2022-11-10T17:25:28.873Z,2.60
2022-11-10T17:31:50.384Z,2.47
2022-11-10T17:38:24.794Z,3.60
2022-11-10T17:44:44.677Z,3.40
2022-11-10T17:51:05.466Z,3.72
2022-11-10T17:57:25.301Z,3.43
2022-11-10T18:03:48.810Z,2.95
2022-11-10T18:10:12.858Z,2.90
2022-11-10T18:16:33.000Z,2.90
2022-11-10T18:22:53.247Z,3.25
2022-11-10T18:29:13.399Z,3.90
2022-11-10T18:35:35.002Z,3.78
2022-11-10T18:41:55.294Z,4.00
2022-11-10T18:48:15.526Z,3.60
2022-11-10T18:54:36.065Z,3.15
2022-11-10T19:01:06.294Z,3.07
2022-11-10T19:07:26.404Z,4.63
2022-11-10T19:13:46.902Z,3.73
2022-11-10T19:20:07.353Z,3.38
2022-11-10T19:26:27.838Z,2.60
2022-11-10T19:32:48.006Z,2.80
2022-11-10T19:39:10.049Z,3.00
2022-11-10T19:45:30.043Z,2.97
2022-11-10T19:51:50.491Z,3.05
2022-11-10T19:58:10.874Z,2.83
2022-11-10T20:04:32.400Z,2.73
2022-11-10T20:10:53.246Z,3.05
2022-11-10T20:17:13.753Z,3.30
2022-11-10T20:23:34.239Z,3.35
2022-11-10T20:29:54.269Z,2.95
2022-11-10T20:36:20.436Z,3.00
2022-11-10T20:42:45.314Z,3.00
2022-11-10T20:49:05.851Z,3.00
2022-11-10T20:55:51.551Z,3.00
2022-11-10T21:02:06.493Z,3.35
2022-11-10T21:08:26.828Z,3.30
2022-11-10T21:14:46.858Z,3.55
2022-11-10T21:21:18.326Z,3.27
2022-11-10T21:27:38.183Z,3.10
2022-11-10T21:33:59.007Z,2.70
2022-11-10T21:40:18.959Z,2.40
2022-11-10T21:46:39.167Z,2.97
2022-11-10T21:52:59.414Z,3.30
2022-11-10T21:59:19.569Z,2.90
2022-11-10T22:05:39.783Z,3.03
2022-11-10T22:12:18.516Z,3.20
2022-11-10T22:18:39.699Z,3.25
2022-11-10T22:24:59.730Z,3.23
2022-11-10T22:31:20.070Z,3.83
2022-11-10T22:37:40.107Z,4.03
2022-11-10T22:44:03.760Z,3.70
2022-11-10T22:50:23.705Z,3.72
2022-11-10T22:56:44.067Z,3.40
2022-11-10T23:03:04.142Z,3.10
2022-11-10T23:09:24.557Z,3.17
2022-11-10T23:15:46.434Z,3.10
2022-11-10T23:22:06.872Z,2.97
2022-11-10T23:28:28.382Z,3.53
2022-11-10T23:34:48.512Z,3.42
2022-11-10T23:41:12.207Z,3.35
2022-11-10T23:47:32.632Z,3.47
2022-11-10T23:53:52.881Z,3.35
